sensor_id;sensor_type;location;lat;lon;timestamp;P1;durP1;ratioP1;P2;durP2;ratioP2
16892;SDS011;8563;52.242;9.098;2024-03-02T00:00:34;8.83;;;7.97;;
16892;SDS011;8563;52.242;9.098;2024-03-02T00:03:07;8.30;;;7.50;;
16892;SDS011;8563;52.242;9.098;2024-03-02T00:05:40;8.40;;;7.50;;
16892;SDS011;8563;52.242;9.098;2024-03-02T00:08:12;9.67;;;8.67;;
16892;SDS011;8563;52.242;9.098;2024-03-02T00:10:51;8.90;;;8.00;;
16892;SDS011;8563;52.242;9.098;2024-03-02T00:13:28;8.93;;;8.00;;
16892;SDS011;8563;52.242;9.098;2024-03-02T00:16:02;8.80;;;7.90;;
16892;SDS011;8563;52.242;9.098;2024-03-02T00:18:36;8.13;;;7.33;;
16892;SDS011;8563;52.242;9.098;2024-03-02T00:21:09;9.37;;;8.47;;
16892;SDS011;8563;52.242;9.098;2024-03-02T00:23:43;9.23;;;8.33;;
16892;SDS011;8563;52.242;9.098;2024-03-02T00:26:17;8.53;;;7.73;;
16892;SDS011;8563;52.242;9.098;2024-03-02T00:28:49;7.87;;;7.10;;
16892;SDS011;8563;52.242;9.098;2024-03-02T00:31:25;8.00;;;7.20;;
16892;SDS011;8563;52.242;9.098;2024-03-02T00:33:58;8.10;;;7.30;;
16892;SDS011;8563;52.242;9.098;2024-03-02T00:36:35;8.70;;;7.80;;
16892;SDS011;8563;52.242;9.098;2024-03-02T00:39:07;9.40;;;8.00;;
16892;SDS011;8563;52.242;9.098;2024-03-02T00:41:41;8.60;;;7.80;;
16892;SDS011;8563;52.242;9.098;2024-03-02T00:44:13;8.53;;;7.73;;
16892;SDS011;8563;52.242;9.098;2024-03-02T00:46:47;8.33;;;7.53;;
16892;SDS011;8563;52.242;9.098;2024-03-02T00:49:20;7.87;;;7.17;;
16892;SDS011;8563;52.242;9.098;2024-03-02T00:51:54;7.87;;;7.07;;
16892;SDS011;8563;52.242;9.098;2024-03-02T00:54:26;9.37;;;8.17;;
16892;SDS011;8563;52.242;9.098;2024-03-02T00:57:00;8.03;;;7.23;;
16892;SDS011;8563;52.242;9.098;2024-03-02T00:59:33;8.03;;;7.27;;
16892;SDS011;8563;52.242;9.098;2024-03-02T01:02:05;7.93;;;7.13;;
16892;SDS011;8563;52.242;9.098;2024-03-02T01:04:37;8.30;;;7.50;;
16892;SDS011;8563;52.242;9.098;2024-03-02T01:07:10;7.60;;;6.80;;
16892;SDS011;8563;52.242;9.098;2024-03-02T01:09:42;8.30;;;7.50;;
16892;SDS011;8563;52.242;9.098;2024-03-02T01:12:16;8.27;;;7.27;;
16892;SDS011;8563;52.242;9.098;2024-03-02T01:14:49;8.33;;;7.50;;
16892;SDS011;8563;52.242;9.098;2024-03-02T01:17:21;7.23;;;6.53;;
16892;SDS011;8563;52.242;9.098;2024-03-02T01:19:53;7.93;;;6.77;;
16892;SDS011;8563;52.242;9.098;2024-03-02T01:22:26;7.83;;;7.10;;
16892;SDS011;8563;52.242;9.098;2024-03-02T01:24:58;7.63;;;6.83;;
16892;SDS011;8563;52.242;9.098;2024-03-02T01:27:31;7.63;;;6.93;;
16892;SDS011;8563;52.242;9.098;2024-03-02T01:30:04;8.23;;;6.90;;
16892;SDS011;8563;52.242;9.098;2024-03-02T01:32:37;7.03;;;6.33;;
16892;SDS011;8563;52.242;9.098;2024-03-02T01:35:10;7.67;;;6.80;;
16892;SDS011;8563;52.242;9.098;2024-03-02T01:37:42;6.53;;;5.93;;
16892;SDS011;8563;52.242;9.098;2024-03-02T01:40:14;7.00;;;6.30;;
16892;SDS011;8563;52.242;9.098;2024-03-02T01:42:48;7.63;;;6.83;;
16892;SDS011;8563;52.242;9.098;2024-03-02T01:45:20;6.67;;;5.97;;
16892;SDS011;8563;52.242;9.098;2024-03-02T01:47:53;9.23;;;6.63;;
16892;SDS011;8563;52.242;9.098;2024-03-02T01:50:27;6.90;;;6.30;;
16892;SDS011;8563;52.242;9.098;2024-03-02T01:53:01;7.57;;;6.47;;
16892;SDS011;8563;52.242;9.098;2024-03-02T01:55:34;6.63;;;6.03;;
16892;SDS011;8563;52.242;9.098;2024-03-02T01:58:07;6.67;;;5.97;;
16892;SDS011;8563;52.242;9.098;2024-03-02T02:00:39;7.20;;;6.60;;
16892;SDS011;8563;52.242;9.098;2024-03-02T02:03:12;7.00;;;6.30;;
16892;SDS011;8563;52.242;9.098;2024-03-02T02:05:44;6.63;;;6.03;;
16892;SDS011;8563;52.242;9.098;2024-03-02T02:08:18;6.33;;;5.73;;
16892;SDS011;8563;52.242;9.098;2024-03-02T02:10:50;6.07;;;5.57;;
16892;SDS011;8563;52.242;9.098;2024-03-02T02:13:24;8.20;;;6.23;;
16892;SDS011;8563;52.242;9.098;2024-03-02T02:16:03;7.27;;;6.60;;
16892;SDS011;8563;52.242;9.098;2024-03-02T02:18:36;6.37;;;5.77;;
16892;SDS011;8563;52.242;9.098;2024-03-02T02:21:09;6.97;;;6.30;;
16892;SDS011;8563;52.242;9.098;2024-03-02T02:23:42;7.53;;;6.83;;
16892;SDS011;8563;52.242;9.098;2024-03-02T02:26:18;8.13;;;6.13;;
16892;SDS011;8563;52.242;9.098;2024-03-02T02:28:50;7.20;;;6.50;;
16892;SDS011;8563;52.242;9.098;2024-03-02T02:31:23;7.40;;;6.60;;
16892;SDS011;8563;52.242;9.098;2024-03-02T02:33:55;7.80;;;6.30;;
16892;SDS011;8563;52.242;9.098;2024-03-02T02:36:27;7.50;;;6.80;;
16892;SDS011;8563;52.242;9.098;2024-03-02T02:39:02;7.10;;;6.50;;
16892;SDS011;8563;52.242;9.098;2024-03-02T02:41:35;7.17;;;6.47;;
16892;SDS011;8563;52.242;9.098;2024-03-02T02:44:07;6.80;;;6.20;;
16892;SDS011;8563;52.242;9.098;2024-03-02T02:46:41;7.27;;;6.57;;
16892;SDS011;8563;52.242;9.098;2024-03-02T02:49:14;7.43;;;6.73;;
16892;SDS011;8563;52.242;9.098;2024-03-02T02:51:46;7.97;;;7.17;;
16892;SDS011;8563;52.242;9.098;2024-03-02T02:54:20;7.60;;;6.87;;
16892;SDS011;8563;52.242;9.098;2024-03-02T02:56:52;7.63;;;6.83;;
16892;SDS011;8563;52.242;9.098;2024-03-02T02:59:24;7.63;;;6.93;;
16892;SDS011;8563;52.242;9.098;2024-03-02T03:01:56;7.77;;;6.97;;
16892;SDS011;8563;52.242;9.098;2024-03-02T03:04:29;8.00;;;7.27;;
16892;SDS011;8563;52.242;9.098;2024-03-02T03:07:01;10.77;;;7.33;;
16892;SDS011;8563;52.242;9.098;2024-03-02T03:09:35;7.60;;;6.90;;
16892;SDS011;8563;52.242;9.098;2024-03-02T03:12:09;8.60;;;7.70;;
16892;SDS011;8563;52.242;9.098;2024-03-02T03:14:41;9.63;;;8.00;;
16892;SDS011;8563;52.242;9.098;2024-03-02T03:17:13;8.57;;;7.70;;
16892;SDS011;8563;52.242;9.098;2024-03-02T03:19:46;8.70;;;7.90;;
16892;SDS011;8563;52.242;9.098;2024-03-02T03:22:18;8.67;;;7.83;;
16892;SDS011;8563;52.242;9.098;2024-03-02T03:24:51;8.37;;;7.57;;
16892;SDS011;8563;52.242;9.098;2024-03-02T03:27:24;10.20;;;8.60;;
16892;SDS011;8563;52.242;9.098;2024-03-02T03:29:56;8.80;;;7.90;;
16892;SDS011;8563;52.242;9.098;2024-03-02T03:32:28;11.93;;;8.87;;
16892;SDS011;8563;52.242;9.098;2024-03-02T03:35:01;9.77;;;8.77;;
16892;SDS011;8563;52.242;9.098;2024-03-02T03:37:33;9.90;;;8.90;;
16892;SDS011;8563;52.242;9.098;2024-03-02T03:40:07;9.70;;;8.70;;
16892;SDS011;8563;52.242;9.098;2024-03-02T03:42:41;11.63;;;9.00;;
16892;SDS011;8563;52.242;9.098;2024-03-02T03:45:14;10.83;;;9.43;;
16892;SDS011;8563;52.242;9.098;2024-03-02T03:47:47;10.70;;;9.60;;
16892;SDS011;8563;52.242;9.098;2024-03-02T03:50:19;10.67;;;9.60;;
16892;SDS011;8563;52.242;9.098;2024-03-02T03:52:51;12.00;;;9.90;;
16892;SDS011;8563;52.242;9.098;2024-03-02T03:55:25;10.37;;;9.37;;
16892;SDS011;8563;52.242;9.098;2024-03-02T03:57:57;10.93;;;9.83;;
16892;SDS011;8563;52.242;9.098;2024-03-02T04:00:29;11.73;;;10.43;;
16892;SDS011;8563;52.242;9.098;2024-03-02T04:03:02;13.73;;;10.47;;
16892;SDS011;8563;52.242;9.098;2024-03-02T04:05:34;12.40;;;10.77;;
16892;SDS011;8563;52.242;9.098;2024-03-02T04:08:06;10.70;;;9.60;;
16892;SDS011;8563;52.242;9.098;2024-03-02T04:10:40;10.77;;;9.67;;
16892;SDS011;8563;52.242;9.098;2024-03-02T04:13:12;11.63;;;10.43;;
16892;SDS011;8563;52.242;9.098;2024-03-02T04:15:45;11.20;;;9.93;;
16892;SDS011;8563;52.242;9.098;2024-03-02T04:18:17;11.73;;;10.10;;
16892;SDS011;8563;52.242;9.098;2024-03-02T04:20:49;11.47;;;10.27;;
16892;SDS011;8563;52.242;9.098;2024-03-02T04:23:21;12.90;;;10.67;;
16892;SDS011;8563;52.242;9.098;2024-03-02T04:25:55;13.73;;;11.77;;
16892;SDS011;8563;52.242;9.098;2024-03-02T04:28:27;11.20;;;10.10;;
16892;SDS011;8563;52.242;9.098;2024-03-02T04:30:59;14.17;;;11.00;;
16892;SDS011;8563;52.242;9.098;2024-03-02T04:33:31;12.43;;;10.53;;
16892;SDS011;8563;52.242;9.098;2024-03-02T04:36:04;13.50;;;11.43;;
16892;SDS011;8563;52.242;9.098;2024-03-02T04:38:38;14.07;;;11.83;;
16892;SDS011;8563;52.242;9.098;2024-03-02T04:41:12;12.57;;;11.27;;
16892;SDS011;8563;52.242;9.098;2024-03-02T04:43:44;12.90;;;11.57;;
16892;SDS011;8563;52.242;9.098;2024-03-02T04:46:17;13.53;;;11.77;;
16892;SDS011;8563;52.242;9.098;2024-03-02T04:48:49;11.80;;;10.60;;
16892;SDS011;8563;52.242;9.098;2024-03-02T04:51:25;13.63;;;11.87;;
16892;SDS011;8563;52.242;9.098;2024-03-02T04:53:58;14.77;;;11.80;;
16892;SDS011;8563;52.242;9.098;2024-03-02T04:56:31;12.30;;;10.87;;
16892;SDS011;8563;52.242;9.098;2024-03-02T04:59:19;12.90;;;11.50;;
16892;SDS011;8563;52.242;9.098;2024-03-02T05:01:52;13.10;;;10.83;;
16892;SDS011;8563;52.242;9.098;2024-03-02T05:04:24;12.90;;;11.00;;
16892;SDS011;8563;52.242;9.098;2024-03-02T05:06:56;13.33;;;11.70;;
16892;SDS011;8563;52.242;9.098;2024-03-02T05:09:28;13.30;;;11.13;;
16892;SDS011;8563;52.242;9.098;2024-03-02T05:12:02;15.07;;;12.17;;
16892;SDS011;8563;52.242;9.098;2024-03-02T05:14:47;13.83;;;11.43;;
16892;SDS011;8563;52.242;9.098;2024-03-02T05:17:20;12.50;;;11.20;;
16892;SDS011;8563;52.242;9.098;2024-03-02T05:19:55;13.30;;;11.13;;
16892;SDS011;8563;52.242;9.098;2024-03-02T05:22:27;14.83;;;12.00;;
16892;SDS011;8563;52.242;9.098;2024-03-02T05:24:59;13.40;;;11.43;;
16892;SDS011;8563;52.242;9.098;2024-03-02T05:27:33;13.80;;;12.30;;
16892;SDS011;8563;52.242;9.098;2024-03-02T05:30:06;13.90;;;12.40;;
16892;SDS011;8563;52.242;9.098;2024-03-02T05:32:39;16.40;;;13.17;;
16892;SDS011;8563;52.242;9.098;2024-03-02T05:35:12;15.40;;;11.77;;
16892;SDS011;8563;52.242;9.098;2024-03-02T05:37:44;14.63;;;11.90;;
16892;SDS011;8563;52.242;9.098;2024-03-02T05:40:16;14.63;;;12.40;;
16892;SDS011;8563;52.242;9.098;2024-03-02T05:42:50;14.40;;;12.67;;
16892;SDS011;8563;52.242;9.098;2024-03-02T05:45:22;13.37;;;11.97;;
16892;SDS011;8563;52.242;9.098;2024-03-02T05:47:54;15.93;;;13.27;;
16892;SDS011;8563;52.242;9.098;2024-03-02T05:50:26;14.80;;;11.97;;
16892;SDS011;8563;52.242;9.098;2024-03-02T05:52:58;14.67;;;12.30;;
16892;SDS011;8563;52.242;9.098;2024-03-02T05:55:31;16.23;;;12.80;;
16892;SDS011;8563;52.242;9.098;2024-03-02T05:58:05;15.93;;;12.53;;
16892;SDS011;8563;52.242;9.098;2024-03-02T06:00:52;14.93;;;12.63;;
16892;SDS011;8563;52.242;9.098;2024-03-02T06:03:25;15.63;;;12.57;;
16892;SDS011;8563;52.242;9.098;2024-03-02T06:05:58;13.87;;;12.03;;
16892;SDS011;8563;52.242;9.098;2024-03-02T06:08:31;15.70;;;12.53;;
16892;SDS011;8563;52.242;9.098;2024-03-02T06:11:03;14.87;;;12.73;;
16892;SDS011;8563;52.242;9.098;2024-03-02T06:13:37;14.70;;;13.13;;
16892;SDS011;8563;52.242;9.098;2024-03-02T06:16:09;14.73;;;13.10;;
16892;SDS011;8563;52.242;9.098;2024-03-02T06:18:41;14.70;;;12.97;;
16892;SDS011;8563;52.242;9.098;2024-03-02T06:21:14;16.40;;;12.33;;
16892;SDS011;8563;52.242;9.098;2024-03-02T06:23:46;16.57;;;14.00;;
16892;SDS011;8563;52.242;9.098;2024-03-02T06:26:18;14.17;;;12.50;;
16892;SDS011;8563;52.242;9.098;2024-03-02T06:28:52;15.17;;;12.37;;
16892;SDS011;8563;52.242;9.098;2024-03-02T06:31:24;15.17;;;12.40;;
16892;SDS011;8563;52.242;9.098;2024-03-02T06:33:56;16.83;;;13.13;;
16892;SDS011;8563;52.242;9.098;2024-03-02T06:36:28;15.10;;;12.47;;
16892;SDS011;8563;52.242;9.098;2024-03-02T06:39:00;15.60;;;13.03;;
16892;SDS011;8563;52.242;9.098;2024-03-02T06:41:33;15.07;;;12.77;;
16892;SDS011;8563;52.242;9.098;2024-03-02T06:44:07;14.60;;;12.23;;
16892;SDS011;8563;52.242;9.098;2024-03-02T06:46:39;16.27;;;12.77;;
16892;SDS011;8563;52.242;9.098;2024-03-02T06:49:11;16.03;;;12.83;;
16892;SDS011;8563;52.242;9.098;2024-03-02T06:51:44;15.40;;;13.13;;
16892;SDS011;8563;52.242;9.098;2024-03-02T06:54:16;17.23;;;13.43;;
16892;SDS011;8563;52.242;9.098;2024-03-02T06:56:48;14.40;;;12.60;;
16892;SDS011;8563;52.242;9.098;2024-03-02T06:59:22;13.73;;;12.27;;
16892;SDS011;8563;52.242;9.098;2024-03-02T07:01:55;15.87;;;12.07;;
16892;SDS011;8563;52.242;9.098;2024-03-02T07:04:27;14.23;;;12.40;;
16892;SDS011;8563;52.242;9.098;2024-03-02T07:06:59;15.80;;;12.97;;
16892;SDS011;8563;52.242;9.098;2024-03-02T07:09:32;13.93;;;12.37;;
16892;SDS011;8563;52.242;9.098;2024-03-02T07:12:06;14.80;;;12.73;;
16892;SDS011;8563;52.242;9.098;2024-03-02T07:14:40;14.20;;;12.00;;
16892;SDS011;8563;52.242;9.098;2024-03-02T07:17:41;17.37;;;12.20;;
16892;SDS011;8563;52.242;9.098;2024-03-02T07:20:14;13.93;;;11.70;;
16892;SDS011;8563;52.242;9.098;2024-03-02T07:22:46;15.90;;;12.50;;
16892;SDS011;8563;52.242;9.098;2024-03-02T07:25:18;14.53;;;12.00;;
16892;SDS011;8563;52.242;9.098;2024-03-02T07:27:50;15.80;;;12.20;;
16892;SDS011;8563;52.242;9.098;2024-03-02T07:30:24;14.97;;;12.40;;
16892;SDS011;8563;52.242;9.098;2024-03-02T07:32:57;13.33;;;11.60;;
16892;SDS011;8563;52.242;9.098;2024-03-02T07:35:29;13.83;;;11.83;;
16892;SDS011;8563;52.242;9.098;2024-03-02T07:38:02;13.07;;;11.47;;
16892;SDS011;8563;52.242;9.098;2024-03-02T07:40:34;14.17;;;11.13;;
16892;SDS011;8563;52.242;9.098;2024-03-02T07:43:07;13.73;;;12.07;;
16892;SDS011;8563;52.242;9.098;2024-03-02T07:45:41;13.27;;;11.57;;
16892;SDS011;8563;52.242;9.098;2024-03-02T07:48:13;14.30;;;11.47;;
16892;SDS011;8563;52.242;9.098;2024-03-02T07:50:45;14.73;;;11.43;;
16892;SDS011;8563;52.242;9.098;2024-03-02T07:53:17;14.30;;;11.53;;
16892;SDS011;8563;52.242;9.098;2024-03-02T07:55:50;13.40;;;11.60;;
16892;SDS011;8563;52.242;9.098;2024-03-02T07:58:22;13.67;;;11.07;;
16892;SDS011;8563;52.242;9.098;2024-03-02T08:00:56;12.83;;;11.30;;
16892;SDS011;8563;52.242;9.098;2024-03-02T08:03:28;13.83;;;11.47;;
16892;SDS011;8563;52.242;9.098;2024-03-02T08:06:02;12.73;;;11.17;;
16892;SDS011;8563;52.242;9.098;2024-03-02T08:08:35;14.87;;;11.27;;
16892;SDS011;8563;52.242;9.098;2024-03-02T08:11:07;12.63;;;10.60;;
16892;SDS011;8563;52.242;9.098;2024-03-02T08:13:40;14.47;;;11.87;;
16892;SDS011;8563;52.242;9.098;2024-03-02T08:16:14;12.93;;;11.30;;
16892;SDS011;8563;52.242;9.098;2024-03-02T08:18:49;16.17;;;11.17;;
16892;SDS011;8563;52.242;9.098;2024-03-02T08:21:22;12.60;;;11.00;;
16892;SDS011;8563;52.242;9.098;2024-03-02T08:23:54;12.17;;;10.70;;
16892;SDS011;8563;52.242;9.098;2024-03-02T08:26:26;12.93;;;11.20;;
16892;SDS011;8563;52.242;9.098;2024-03-02T08:29:01;12.57;;;10.53;;
16892;SDS011;8563;52.242;9.098;2024-03-02T08:31:35;14.00;;;11.37;;
16892;SDS011;8563;52.242;9.098;2024-03-02T08:34:07;12.60;;;10.97;;
16892;SDS011;8563;52.242;9.098;2024-03-02T08:36:39;12.00;;;10.63;;
16892;SDS011;8563;52.242;9.098;2024-03-02T08:39:12;11.43;;;10.00;;
16892;SDS011;8563;52.242;9.098;2024-03-02T08:41:45;11.77;;;10.40;;
16892;SDS011;8563;52.242;9.098;2024-03-02T08:44:17;12.17;;;10.63;;
16892;SDS011;8563;52.242;9.098;2024-03-02T08:46:52;11.10;;;9.80;;
16892;SDS011;8563;52.242;9.098;2024-03-02T08:49:24;12.10;;;10.17;;
16892;SDS011;8563;52.242;9.098;2024-03-02T08:51:56;12.37;;;10.63;;
16892;SDS011;8563;52.242;9.098;2024-03-02T08:54:28;11.33;;;9.73;;
16892;SDS011;8563;52.242;9.098;2024-03-02T08:57:01;11.10;;;9.47;;
16892;SDS011;8563;52.242;9.098;2024-03-02T08:59:34;9.70;;;8.70;;
16892;SDS011;8563;52.242;9.098;2024-03-02T09:02:07;10.13;;;8.80;;
16892;SDS011;8563;52.242;9.098;2024-03-02T09:04:40;10.73;;;9.13;;
16892;SDS011;8563;52.242;9.098;2024-03-02T09:07:12;9.77;;;8.63;;
16892;SDS011;8563;52.242;9.098;2024-03-02T09:09:44;9.87;;;8.03;;
16892;SDS011;8563;52.242;9.098;2024-03-02T09:12:16;9.07;;;7.47;;
16892;SDS011;8563;52.242;9.098;2024-03-02T09:18:09;8.20;;;7.40;;
16892;SDS011;8563;52.242;9.098;2024-03-02T09:20:42;8.10;;;6.77;;
16892;SDS011;8563;52.242;9.098;2024-03-02T09:23:14;7.73;;;6.57;;
16892;SDS011;8563;52.242;9.098;2024-03-02T09:25:46;7.90;;;6.37;;
16892;SDS011;8563;52.242;9.098;2024-03-02T09:28:18;8.07;;;6.83;;
16892;SDS011;8563;52.242;9.098;2024-03-02T09:30:51;7.77;;;6.80;;
16892;SDS011;8563;52.242;9.098;2024-03-02T09:33:25;9.50;;;7.00;;
16892;SDS011;8563;52.242;9.098;2024-03-02T09:35:58;8.83;;;7.47;;
16892;SDS011;8563;52.242;9.098;2024-03-02T09:38:31;9.20;;;7.37;;
16892;SDS011;8563;52.242;9.098;2024-03-02T09:41:04;8.37;;;7.20;;
16892;SDS011;8563;52.242;9.098;2024-03-02T09:43:36;7.77;;;6.93;;
16892;SDS011;8563;52.242;9.098;2024-03-02T09:46:09;13.23;;;7.60;;
16892;SDS011;8563;52.242;9.098;2024-03-02T09:48:44;9.57;;;7.50;;
16892;SDS011;8563;52.242;9.098;2024-03-02T09:51:16;7.73;;;6.90;;
16892;SDS011;8563;52.242;9.098;2024-03-02T09:53:49;10.10;;;6.70;;
16892;SDS011;8563;52.242;9.098;2024-03-02T09:56:23;9.17;;;6.43;;
16892;SDS011;8563;52.242;9.098;2024-03-02T09:58:55;8.73;;;6.60;;
16892;SDS011;8563;52.242;9.098;2024-03-02T10:01:28;9.67;;;6.63;;
16892;SDS011;8563;52.242;9.098;2024-03-02T10:04:01;6.60;;;5.90;;
16892;SDS011;8563;52.242;9.098;2024-03-02T10:06:33;6.80;;;6.07;;
16892;SDS011;8563;52.242;9.098;2024-03-02T10:09:06;7.60;;;6.13;;
16892;SDS011;8563;52.242;9.098;2024-03-02T10:11:38;6.97;;;5.90;;
16892;SDS011;8563;52.242;9.098;2024-03-02T10:14:10;6.53;;;5.47;;
16892;SDS011;8563;52.242;9.098;2024-03-02T10:16:44;7.93;;;5.20;;
16892;SDS011;8563;52.242;9.098;2024-03-02T10:19:19;6.47;;;5.77;;
16892;SDS011;8563;52.242;9.098;2024-03-02T10:21:52;6.57;;;5.27;;
16892;SDS011;8563;52.242;9.098;2024-03-02T10:24:27;6.83;;;5.37;;
16892;SDS011;8563;52.242;9.098;2024-03-02T10:27:09;7.10;;;5.27;;
16892;SDS011;8563;52.242;9.098;2024-03-02T10:29:42;7.27;;;5.30;;
16892;SDS011;8563;52.242;9.098;2024-03-02T10:32:17;8.17;;;5.47;;
16892;SDS011;8563;52.242;9.098;2024-03-02T10:34:50;6.20;;;5.60;;
16892;SDS011;8563;52.242;9.098;2024-03-02T10:37:23;5.40;;;4.90;;
16892;SDS011;8563;52.242;9.098;2024-03-02T10:39:55;5.80;;;4.63;;
16892;SDS011;8563;52.242;9.098;2024-03-02T10:42:28;6.67;;;5.30;;
16892;SDS011;8563;52.242;9.098;2024-03-02T10:45:00;6.83;;;4.90;;
16892;SDS011;8563;52.242;9.098;2024-03-02T10:47:33;5.50;;;4.90;;
16892;SDS011;8563;52.242;9.098;2024-03-02T10:50:09;7.07;;;5.63;;
16892;SDS011;8563;52.242;9.098;2024-03-02T10:52:42;5.70;;;4.87;;
16892;SDS011;8563;52.242;9.098;2024-03-02T10:55:14;7.17;;;4.90;;
16892;SDS011;8563;52.242;9.098;2024-03-02T10:57:50;5.50;;;5.00;;
16892;SDS011;8563;52.242;9.098;2024-03-02T11:00:24;6.00;;;5.23;;
16892;SDS011;8563;52.242;9.098;2024-03-02T11:03:02;5.23;;;4.70;;
16892;SDS011;8563;52.242;9.098;2024-03-02T11:05:44;6.07;;;5.20;;
16892;SDS011;8563;52.242;9.098;2024-03-02T11:08:18;5.47;;;4.77;;
16892;SDS011;8563;52.242;9.098;2024-03-02T11:10:51;5.43;;;4.60;;
16892;SDS011;8563;52.242;9.098;2024-03-02T11:13:31;4.97;;;4.23;;
16892;SDS011;8563;52.242;9.098;2024-03-02T11:16:05;5.20;;;4.37;;
16892;SDS011;8563;52.242;9.098;2024-03-02T11:18:50;6.13;;;4.50;;
16892;SDS011;8563;52.242;9.098;2024-03-02T11:21:24;4.63;;;4.00;;
16892;SDS011;8563;52.242;9.098;2024-03-02T11:23:56;4.27;;;3.80;;
16892;SDS011;8563;52.242;9.098;2024-03-02T11:26:28;5.43;;;4.40;;
16892;SDS011;8563;52.242;9.098;2024-03-02T11:29:10;5.37;;;4.37;;
16892;SDS011;8563;52.242;9.098;2024-03-02T11:32:15;4.60;;;4.10;;
16892;SDS011;8563;52.242;9.098;2024-03-02T11:34:49;4.97;;;3.80;;
16892;SDS011;8563;52.242;9.098;2024-03-02T11:37:23;4.87;;;3.90;;
16892;SDS011;8563;52.242;9.098;2024-03-02T11:39:56;4.20;;;3.63;;
16892;SDS011;8563;52.242;9.098;2024-03-02T11:42:29;4.70;;;4.00;;
16892;SDS011;8563;52.242;9.098;2024-03-02T11:45:01;4.30;;;3.90;;
16892;SDS011;8563;52.242;9.098;2024-03-02T11:47:34;3.60;;;3.30;;
16892;SDS011;8563;52.242;9.098;2024-03-02T11:50:06;4.40;;;3.60;;
16892;SDS011;8563;52.242;9.098;2024-03-02T11:52:40;3.40;;;3.10;;
16892;SDS011;8563;52.242;9.098;2024-03-02T11:55:14;4.97;;;3.30;;
16892;SDS011;8563;52.242;9.098;2024-03-02T11:57:51;4.87;;;3.83;;
16892;SDS011;8563;52.242;9.098;2024-03-02T12:00:24;4.53;;;3.30;;
16892;SDS011;8563;52.242;9.098;2024-03-02T12:02:59;3.60;;;3.10;;
16892;SDS011;8563;52.242;9.098;2024-03-02T12:05:32;3.63;;;3.27;;
16892;SDS011;8563;52.242;9.098;2024-03-02T12:08:06;4.73;;;3.17;;
16892;SDS011;8563;52.242;9.098;2024-03-02T12:10:39;3.33;;;3.03;;
16892;SDS011;8563;52.242;9.098;2024-03-02T12:13:11;3.97;;;3.57;;
16892;SDS011;8563;52.242;9.098;2024-03-02T12:15:43;3.77;;;3.37;;
16892;SDS011;8563;52.242;9.098;2024-03-02T12:18:16;5.67;;;3.60;;
16892;SDS011;8563;52.242;9.098;2024-03-02T12:20:49;4.17;;;3.50;;
16892;SDS011;8563;52.242;9.098;2024-03-02T12:23:24;4.43;;;3.23;;
16892;SDS011;8563;52.242;9.098;2024-03-02T12:25:56;4.57;;;4.03;;
16892;SDS011;8563;52.242;9.098;2024-03-02T12:28:29;3.57;;;2.93;;
16892;SDS011;8563;52.242;9.098;2024-03-02T12:31:01;3.43;;;3.13;;
16892;SDS011;8563;52.242;9.098;2024-03-02T12:33:33;4.90;;;3.47;;
16892;SDS011;8563;52.242;9.098;2024-03-02T12:36:06;3.60;;;3.30;;
16892;SDS011;8563;52.242;9.098;2024-03-02T12:38:44;3.60;;;2.97;;
16892;SDS011;8563;52.242;9.098;2024-03-02T12:41:16;3.73;;;3.07;;
16892;SDS011;8563;52.242;9.098;2024-03-02T12:43:49;4.33;;;3.50;;
16892;SDS011;8563;52.242;9.098;2024-03-02T12:46:21;3.20;;;2.90;;
16892;SDS011;8563;52.242;9.098;2024-03-02T12:48:53;3.73;;;2.93;;
16892;SDS011;8563;52.242;9.098;2024-03-02T12:51:26;3.70;;;3.30;;
16892;SDS011;8563;52.242;9.098;2024-03-02T12:54:00;3.93;;;3.53;;
16892;SDS011;8563;52.242;9.098;2024-03-02T12:56:32;4.03;;;3.60;;
16892;SDS011;8563;52.242;9.098;2024-03-02T12:59:05;3.30;;;3.00;;
16892;SDS011;8563;52.242;9.098;2024-03-02T13:01:37;4.90;;;3.20;;
16892;SDS011;8563;52.242;9.098;2024-03-02T13:04:09;3.83;;;3.30;;
16892;SDS011;8563;52.242;9.098;2024-03-02T13:06:41;3.43;;;2.90;;
16892;SDS011;8563;52.242;9.098;2024-03-02T13:09:15;3.67;;;3.33;;
16892;SDS011;8563;52.242;9.098;2024-03-02T13:11:48;3.60;;;2.93;;
16892;SDS011;8563;52.242;9.098;2024-03-02T13:14:21;3.93;;;3.03;;
16892;SDS011;8563;52.242;9.098;2024-03-02T13:16:55;3.13;;;2.83;;
16892;SDS011;8563;52.242;9.098;2024-03-02T13:19:30;3.40;;;2.97;;
16892;SDS011;8563;52.242;9.098;2024-03-02T13:22:02;3.23;;;2.93;;
16892;SDS011;8563;52.242;9.098;2024-03-02T13:24:37;3.30;;;2.70;;
16892;SDS011;8563;52.242;9.098;2024-03-02T13:27:12;2.93;;;2.67;;
16892;SDS011;8563;52.242;9.098;2024-03-02T13:29:45;3.20;;;2.90;;
16892;SDS011;8563;52.242;9.098;2024-03-02T13:32:18;3.73;;;3.07;;
16892;SDS011;8563;52.242;9.098;2024-03-02T13:34:54;4.17;;;2.83;;
16892;SDS011;8563;52.242;9.098;2024-03-02T13:37:26;3.43;;;2.63;;
16892;SDS011;8563;52.242;9.098;2024-03-02T13:39:59;3.60;;;2.70;;
16892;SDS011;8563;52.242;9.098;2024-03-02T13:42:32;3.00;;;2.70;;
16892;SDS011;8563;52.242;9.098;2024-03-02T13:45:05;3.43;;;3.13;;
16892;SDS011;8563;52.242;9.098;2024-03-02T13:47:37;2.70;;;2.40;;
16892;SDS011;8563;52.242;9.098;2024-03-02T13:50:10;3.60;;;2.50;;
16892;SDS011;8563;52.242;9.098;2024-03-02T13:52:42;2.50;;;2.30;;
16892;SDS011;8563;52.242;9.098;2024-03-02T13:55:16;5.20;;;3.00;;
16892;SDS011;8563;52.242;9.098;2024-03-02T13:57:48;5.40;;;3.20;;
16892;SDS011;8563;52.242;9.098;2024-03-02T14:00:21;4.13;;;2.53;;
16892;SDS011;8563;52.242;9.098;2024-03-02T14:02:53;2.50;;;2.30;;
16892;SDS011;8563;52.242;9.098;2024-03-02T14:05:25;4.37;;;2.43;;
16892;SDS011;8563;52.242;9.098;2024-03-02T14:07:57;25.40;;;5.27;;
16892;SDS011;8563;52.242;9.098;2024-03-02T14:10:32;4.27;;;2.60;;
16892;SDS011;8563;52.242;9.098;2024-03-02T14:13:05;2.50;;;2.30;;
16892;SDS011;8563;52.242;9.098;2024-03-02T14:15:37;2.50;;;2.30;;
16892;SDS011;8563;52.242;9.098;2024-03-02T14:18:10;2.20;;;2.00;;
16892;SDS011;8563;52.242;9.098;2024-03-02T14:20:42;2.27;;;1.87;;
16892;SDS011;8563;52.242;9.098;2024-03-02T14:23:15;2.53;;;2.20;;
16892;SDS011;8563;52.242;9.098;2024-03-02T14:25:48;2.03;;;1.87;;
16892;SDS011;8563;52.242;9.098;2024-03-02T14:28:21;2.23;;;2.03;;
16892;SDS011;8563;52.242;9.098;2024-03-02T14:30:53;2.17;;;1.73;;
16892;SDS011;8563;52.242;9.098;2024-03-02T14:33:25;2.50;;;2.20;;
16892;SDS011;8563;52.242;9.098;2024-03-02T14:35:57;3.00;;;1.60;;
16892;SDS011;8563;52.242;9.098;2024-03-02T14:38:30;2.77;;;2.13;;
16892;SDS011;8563;52.242;9.098;2024-03-02T14:41:04;2.50;;;1.80;;
16892;SDS011;8563;52.242;9.098;2024-03-02T14:43:36;1.90;;;1.70;;
16892;SDS011;8563;52.242;9.098;2024-03-02T14:46:08;2.23;;;1.43;;
16892;SDS011;8563;52.242;9.098;2024-03-02T14:48:41;1.67;;;1.43;;
16892;SDS011;8563;52.242;9.098;2024-03-02T14:51:16;1.60;;;1.30;;
16892;SDS011;8563;52.242;9.098;2024-03-02T14:53:48;1.87;;;1.33;;
16892;SDS011;8563;52.242;9.098;2024-03-02T14:56:23;2.23;;;1.30;;
16892;SDS011;8563;52.242;9.098;2024-03-02T14:58:55;1.43;;;1.10;;
16892;SDS011;8563;52.242;9.098;2024-03-02T15:01:28;2.17;;;1.23;;
16892;SDS011;8563;52.242;9.098;2024-03-02T15:04:00;1.40;;;1.00;;
16892;SDS011;8563;52.242;9.098;2024-03-02T15:06:32;1.53;;;1.30;;
16892;SDS011;8563;52.242;9.098;2024-03-02T15:09:04;1.20;;;1.10;;
16892;SDS011;8563;52.242;9.098;2024-03-02T15:11:38;1.50;;;1.10;;
16892;SDS011;8563;52.242;9.098;2024-03-02T15:14:11;1.83;;;1.07;;
16892;SDS011;8563;52.242;9.098;2024-03-02T15:16:43;1.57;;;1.27;;
16892;SDS011;8563;52.242;9.098;2024-03-02T15:19:16;1.33;;;1.00;;
16892;SDS011;8563;52.242;9.098;2024-03-02T15:21:48;2.90;;;1.20;;
16892;SDS011;8563;52.242;9.098;2024-03-02T15:24:20;1.97;;;1.33;;
16892;SDS011;8563;52.242;9.098;2024-03-02T15:26:54;1.60;;;1.30;;
16892;SDS011;8563;52.242;9.098;2024-03-02T15:29:27;1.43;;;1.20;;
16892;SDS011;8563;52.242;9.098;2024-03-02T15:32:01;1.83;;;1.07;;